This is the latest recevied weather packets stored in our database for station/object K0APR. If no packets are shown the sender has not sent any weather packets the latest 1 day(s).
| Time | Temp. | Humidity | Pressure | Rain* | Wind** | Luminosity | Snow |
|---|---|---|---|---|---|---|---|
| 1777989959 | 7.22° C | 57% | 1011.5 hPa | 0 mm | 2.24 m/s, 316° | 337 W/m² | - |
| 1777989656 | 6.67° C | 60% | 1011.5 hPa | 0 mm | 0.45 m/s, 317° | 302 W/m² | - |
| 1777989352 | 6.67° C | 60% | 1011.5 hPa | 0 mm | 0.89 m/s, 295° | 278 W/m² | - |
| 1777989049 | 6.11° C | 62% | 1012 hPa | 0 mm | 2.68 m/s, 320° | 255 W/m² | - |
| 1777988744 | 6.11° C | 62% | 1011.5 hPa | 0 mm | 4.02 m/s, 306° | 228 W/m² | - |
| 1777988442 | 5.56° C | 64% | 1011.5 hPa | 0 mm | 1.79 m/s, 315° | 213 W/m² | - |
| 1777988139 | 5.56° C | 65% | 1011.2 hPa | 0 mm | 1.34 m/s, 308° | 203 W/m² | - |
| 1777987834 | 5.56° C | 63% | 1010.9 hPa | 0 mm | 3.13 m/s, 343° | 198 W/m² | - |
| 1777987531 | 5.56° C | 64% | 1010.9 hPa | 0 mm | 1.34 m/s, 266° | 215 W/m² | - |
| 1777987229 | 5° C | 66% | 1011.2 hPa | 0 mm | 1.34 m/s, 319° | 221 W/m² | - |
| 1777986925 | 5° C | 65% | 1011.2 hPa | 0 mm | 2.24 m/s, 314° | 210 W/m² | - |
| 1777986624 | 5° C | 67% | 1010.9 hPa | 0 mm | 0.45 m/s, 310° | 189 W/m² | - |
| 1777986321 | 4.44° C | 68% | 1011.2 hPa | 0 mm | 2.24 m/s, 335° | 154 W/m² | - |
| 1777986020 | 4.44° C | 68% | 1010.9 hPa | 0 mm | 1.79 m/s, 311° | 150 W/m² | - |
| 1777985716 | 3.89° C | 69% | 1011.2 hPa | 0 mm | 0.45 m/s, 314° | 128 W/m² | - |
| 1777985413 | 3.89° C | 69% | 1010.9 hPa | 0 mm | 0.45 m/s, 303° | 118 W/m² | - |
| 1777985109 | 3.89° C | 69% | 1010.9 hPa | 0 mm | 2.24 m/s, 327° | 104 W/m² | - |
| 1777984806 | 3.33° C | 70% | 1010.9 hPa | 0 mm | 2.24 m/s, 329° | 94 W/m² | - |
| 1777984502 | 3.33° C | 71% | 1010.9 hPa | 0 mm | 1.34 m/s, 327° | 87 W/m² | - |
| 1777984198 | 2.78° C | 72% | 1010.9 hPa | 0 mm | 0.45 m/s, 323° | 62 W/m² | - |
| 1777983895 | 2.78° C | 72% | 1010.2 hPa | 0 mm | 0.45 m/s, 306° | 56 W/m² | - |
| 1777983592 | 2.22° C | 73% | 1010.5 hPa | 0 mm | 0.89 m/s, 322° | 51 W/m² | - |
| 1777983289 | 2.22° C | 73% | 1010.5 hPa | 0 mm | 1.34 m/s, 318° | 44 W/m² | - |
| 1777982985 | 2.22° C | 73% | 1010.2 hPa | 0 mm | 0.89 m/s, 318° | 42 W/m² | - |
| 1777982682 | 1.67° C | 74% | 1010.2 hPa | 0 mm | 1.79 m/s, 313° | 37 W/m² | - |
* Rain latest hour (hover to see other rain measurements)
** Current wind speed in m/s (hover to see current wind gust speed)